KMWA

Veterans of Southern Illinois Airport

Marion, Illinois, USA
METAR KMWA 231115Z AUTO 00000KT 10SM CLR 03/03 A3023 RMK AO2 T00330032
Observed Flight Rules
Oct-23 @ 11:15 UTC (33 minutes ago) Visual Flight Rules
Visibility Clouds
10 miles
  • Clear skies
Temperatures Readings
Current 3°C / 37°F
Dewpoint 3°C / 37°F
Humidity 100%
Altimeter 30.23" Hg
Pressure 1024 hPa
Elevation 144
METAR KMWA 231115Z AUTO 00000KT 10SM CLR 03/03 A3023 RMK AO2 T00330032
Observed Flight Rules
Oct-23 @ 11:15 UTC
(33 minutes ago)
VFR
Clouds
  • Clear skies
Temperature Dewpoint
3°C / 37°F 3°C / 37°F
Humidity Altimeter Pressure
100% 30.23" Hg 1024 hPa